createdAt,value
2022-12-04T00:02:24.067Z,27.93
2022-12-04T00:04:50.803Z,27.97
2022-12-04T00:07:17.379Z,29.13
2022-12-04T00:09:43.930Z,29.10
2022-12-04T00:12:10.528Z,28.53
2022-12-04T00:14:54.435Z,27.90
2022-12-04T00:17:23.362Z,28.20
2022-12-04T00:19:49.791Z,26.70
2022-12-04T00:22:16.255Z,28.77
2022-12-04T00:24:42.781Z,28.60
2022-12-04T00:27:09.275Z,29.07
2022-12-04T00:29:35.725Z,27.93
2022-12-04T00:32:02.326Z,30.63
2022-12-04T00:34:28.884Z,28.77
2022-12-04T00:36:55.439Z,31.60
2022-12-04T00:39:21.867Z,27.87
2022-12-04T00:41:48.297Z,30.27
2022-12-04T00:44:14.878Z,30.37
2022-12-04T00:46:41.467Z,29.73
2022-12-04T00:49:07.900Z,29.00
2022-12-04T00:51:34.388Z,28.03
2022-12-04T00:54:00.980Z,32.53
2022-12-04T00:56:28.264Z,29.47
2022-12-04T00:58:55.980Z,31.60
2022-12-04T01:01:23.004Z,31.40
2022-12-04T01:03:49.691Z,31.07
2022-12-04T01:06:20.472Z,31.23
2022-12-04T01:08:47.175Z,28.67
2022-12-04T01:11:13.629Z,29.60
2022-12-04T01:13:40.185Z,28.97
2022-12-04T01:16:06.692Z,28.33
2022-12-04T01:18:33.217Z,33.47
2022-12-04T01:20:59.746Z,30.97
2022-12-04T01:23:26.234Z,27.30
2022-12-04T01:25:54.594Z,31.17
2022-12-04T01:28:21.414Z,31.57
2022-12-04T01:31:17.464Z,30.90
2022-12-04T01:33:44.874Z,27.97
2022-12-04T01:36:12.919Z,31.77
2022-12-04T01:38:40.090Z,31.43
2022-12-04T01:41:07.065Z,29.77
2022-12-04T01:43:34.779Z,30.63
2022-12-04T01:46:01.876Z,29.47
2022-12-04T01:48:32.659Z,32.80
2022-12-04T01:51:02.641Z,30.37
2022-12-04T01:53:31.370Z,31.33
2022-12-04T01:55:57.899Z,28.63
2022-12-04T01:58:27.963Z,33.57
2022-12-04T02:00:58.392Z,30.67
2022-12-04T02:03:25.263Z,29.67
2022-12-04T02:05:51.729Z,32.43
2022-12-04T02:08:18.423Z,31.93
2022-12-04T02:10:52.869Z,29.23
2022-12-04T02:13:22.325Z,31.10
2022-12-04T02:15:52.079Z,28.93
2022-12-04T02:18:18.499Z,29.83
2022-12-04T02:21:06.050Z,30.03
2022-12-04T02:23:53.992Z,29.43
2022-12-04T02:26:38.964Z,33.50
2022-12-04T02:29:19.019Z,30.13
2022-12-04T02:31:51.713Z,31.70
2022-12-04T02:34:37.870Z,32.43
2022-12-04T02:37:30.553Z,30.10
2022-12-04T02:40:04.832Z,30.93
2022-12-04T02:42:51.494Z,30.83
2022-12-04T02:45:21.618Z,30.57
2022-12-04T02:47:48.082Z,29.90
2022-12-04T02:50:16.394Z,30.13
2022-12-04T02:52:46.083Z,32.87
2022-12-04T02:55:15.337Z,33.20
2022-12-04T02:57:44.142Z,31.53
2022-12-04T03:00:11.108Z,32.43
2022-12-04T03:02:47.232Z,32.40
2022-12-04T03:05:16.743Z,29.93
2022-12-04T03:07:54.787Z,28.37
2022-12-04T03:10:24.418Z,30.83
2022-12-04T03:12:53.403Z,31.30
2022-12-04T03:15:38.494Z,32.40
2022-12-04T03:18:07.367Z,34.17
2022-12-04T03:20:35.137Z,31.67
2022-12-04T03:23:04.787Z,33.20
2022-12-04T03:25:37.551Z,29.47
2022-12-04T03:28:07.496Z,32.93
2022-12-04T03:30:38.372Z,31.07
2022-12-04T03:33:12.015Z,29.03
2022-12-04T03:35:49.879Z,31.47
2022-12-04T03:38:27.680Z,33.03
2022-12-04T03:41:03.641Z,28.70
2022-12-04T03:43:44.702Z,32.10
2022-12-04T03:46:23.936Z,34.33
2022-12-04T03:48:52.363Z,32.27
2022-12-04T03:51:22.104Z,30.83
2022-12-04T03:53:54.850Z,31.87
2022-12-04T03:56:22.687Z,32.70
2022-12-04T03:58:51.064Z,33.47
2022-12-04T04:01:20.344Z,33.00
2022-12-04T04:03:49.618Z,32.03
2022-12-04T04:06:21.127Z,33.97
2022-12-04T04:08:49.709Z,31.33
2022-12-04T04:11:34.349Z,29.63
2022-12-04T04:14:22.536Z,33.37
2022-12-04T04:17:13.775Z,34.73
2022-12-04T04:20:00.788Z,32.43
2022-12-04T04:22:45.795Z,32.37
2022-12-04T04:25:14.624Z,33.10
2022-12-04T04:27:41.118Z,31.27
2022-12-04T04:30:08.176Z,32.53
2022-12-04T04:32:34.823Z,34.47
2022-12-04T04:35:20.147Z,32.43
2022-12-04T04:37:53.648Z,30.80
2022-12-04T04:40:23.770Z,32.07
2022-12-04T04:43:11.273Z,32.40
2022-12-04T04:45:42.289Z,31.17
2022-12-04T04:48:16.467Z,29.60
2022-12-04T04:50:44.140Z,29.67
2022-12-04T04:53:16.924Z,33.10
2022-12-04T04:55:43.801Z,28.50
2022-12-04T04:58:11.711Z,30.67
2022-12-04T05:00:38.622Z,31.37
2022-12-04T05:03:05.546Z,28.80
2022-12-04T05:05:32.039Z,30.97
2022-12-04T05:07:58.565Z,26.90
2022-12-04T05:10:25.063Z,30.57
2022-12-04T05:12:51.493Z,26.80
2022-12-04T05:15:17.915Z,30.33
2022-12-04T05:17:44.388Z,29.70
2022-12-04T05:20:11.012Z,29.03
2022-12-04T05:22:37.509Z,28.53
2022-12-04T05:25:04.373Z,29.27
2022-12-04T05:27:31.556Z,28.90
2022-12-04T05:29:58.691Z,29.40
2022-12-04T05:32:26.475Z,26.87
2022-12-04T05:34:53.714Z,31.17
2022-12-04T05:37:20.528Z,29.50
2022-12-04T05:39:47.305Z,29.70
2022-12-04T05:42:14.159Z,29.77
2022-12-04T05:44:40.696Z,31.47
2022-12-04T05:47:07.362Z,29.37
2022-12-04T05:49:34.347Z,29.63
2022-12-04T05:52:01.297Z,30.33
2022-12-04T05:54:27.801Z,28.63
2022-12-04T05:56:54.273Z,25.87
2022-12-04T05:59:20.745Z,26.50
2022-12-04T06:01:47.328Z,28.70
2022-12-04T06:04:13.895Z,27.23
2022-12-04T06:06:40.372Z,25.87
2022-12-04T06:09:07.728Z,27.07
2022-12-04T06:11:35.798Z,27.13
2022-12-04T06:14:04.152Z,28.50
2022-12-04T06:16:37.200Z,25.63
2022-12-04T06:19:05.781Z,27.90
2022-12-04T06:21:32.967Z,27.30
2022-12-04T06:23:59.466Z,27.97
2022-12-04T06:26:26.358Z,27.23
2022-12-04T06:28:53.460Z,28.83
2022-12-04T06:31:20.031Z,29.00
2022-12-04T06:33:46.664Z,31.50
2022-12-04T06:36:17.826Z,31.27
2022-12-04T06:38:44.885Z,28.90
2022-12-04T06:41:12.823Z,30.00
2022-12-04T06:43:39.774Z,30.13
2022-12-04T06:46:25.029Z,31.10
2022-12-04T06:48:51.844Z,28.50
2022-12-04T06:51:19.761Z,24.73
2022-12-04T06:53:46.510Z,27.40
2022-12-04T06:56:16.178Z,36.83
2022-12-04T06:58:42.596Z,24.43
2022-12-04T07:01:10.670Z,23.60
2022-12-04T07:03:37.787Z,23.70
2022-12-04T07:06:12.697Z,20.20
2022-12-04T07:08:39.125Z,23.07
2022-12-04T07:11:05.696Z,18.77
2022-12-04T07:13:32.249Z,19.93
2022-12-04T07:16:02.596Z,20.50
2022-12-04T07:18:29.982Z,21.33
2022-12-04T07:20:56.520Z,20.23
2022-12-04T07:23:23.172Z,19.53
2022-12-04T07:25:49.715Z,21.53
2022-12-04T07:28:16.257Z,20.27
2022-12-04T07:30:42.732Z,19.47
2022-12-04T07:33:09.180Z,20.67
2022-12-04T07:35:35.637Z,19.03
2022-12-04T07:38:02.084Z,16.60
2022-12-04T07:40:28.569Z,18.37
2022-12-04T07:42:55.076Z,18.77
2022-12-04T07:45:22.662Z,15.73
2022-12-04T07:47:49.153Z,15.43
2022-12-04T07:50:15.812Z,14.47
2022-12-04T07:52:42.248Z,14.40
2022-12-04T07:55:09.179Z,13.13
2022-12-04T07:57:35.610Z,11.60
2022-12-04T08:00:02.130Z,11.87
2022-12-04T08:02:38.548Z,12.70
2022-12-04T08:05:05.174Z,12.27
2022-12-04T08:07:32.024Z,13.87
2022-12-04T08:09:58.654Z,12.07
2022-12-04T08:12:25.227Z,11.67
2022-12-04T08:14:51.817Z,12.67
2022-12-04T08:17:18.364Z,12.10
2022-12-04T08:19:44.894Z,12.70
2022-12-04T08:22:11.335Z,11.73
2022-12-04T08:24:37.816Z,12.20
2022-12-04T08:27:04.335Z,12.17
2022-12-04T08:29:30.792Z,12.03
2022-12-04T08:31:57.248Z,12.17
2022-12-04T08:34:23.834Z,12.63
2022-12-04T08:36:50.438Z,12.90
2022-12-04T08:39:16.905Z,13.57
2022-12-04T08:41:43.338Z,12.80
2022-12-04T08:44:09.932Z,12.83
2022-12-04T08:46:36.570Z,11.50
2022-12-04T08:49:03.435Z,11.43
2022-12-04T08:51:30.806Z,13.50
2022-12-04T08:53:58.915Z,13.97
2022-12-04T08:56:26.320Z,14.33
2022-12-04T08:58:53.288Z,14.53
2022-12-04T09:01:19.744Z,12.87
2022-12-04T09:03:46.224Z,11.70
2022-12-04T09:06:14.215Z,11.57
2022-12-04T09:08:40.860Z,11.87
2022-12-04T09:11:08.709Z,11.83
2022-12-04T09:13:35.345Z,11.60
2022-12-04T09:16:06.870Z,12.33
2022-12-04T09:18:34.021Z,12.47
2022-12-04T09:21:01.790Z,12.87
2022-12-04T09:23:28.543Z,12.20
2022-12-04T09:25:55.041Z,12.40
2022-12-04T09:28:21.560Z,12.23
2022-12-04T09:31:01.822Z,12.17
2022-12-04T09:33:28.351Z,13.00
2022-12-04T09:35:55.017Z,12.23
2022-12-04T09:38:21.522Z,12.17
2022-12-04T09:40:52.192Z,11.40
2022-12-04T09:43:26.440Z,13.40
2022-12-04T09:45:54.511Z,12.20
2022-12-04T09:48:22.221Z,12.90
2022-12-04T09:50:49.609Z,11.60
2022-12-04T09:53:19.468Z,13.47
2022-12-04T09:55:51.615Z,13.07
2022-12-04T09:58:21.218Z,12.73
2022-12-04T10:00:49.863Z,13.37
2022-12-04T10:03:18.208Z,12.83
2022-12-04T10:06:00.118Z,13.63
2022-12-04T10:08:31.847Z,12.70
2022-12-04T10:11:02.834Z,12.67
2022-12-04T10:13:53.626Z,12.23
2022-12-04T10:16:38.151Z,12.63
2022-12-04T10:19:16.855Z,12.37
2022-12-04T10:21:46.153Z,13.87
2022-12-04T10:24:15.603Z,14.27
2022-12-04T10:26:44.784Z,11.43
2022-12-04T10:29:29.541Z,13.87
2022-12-04T10:31:57.347Z,13.73
2022-12-04T10:34:25.660Z,13.10
2022-12-04T10:36:53.876Z,13.87
2022-12-04T10:39:24.648Z,13.20
2022-12-04T10:41:51.056Z,13.10
2022-12-04T10:44:18.231Z,12.70
2022-12-04T10:46:46.543Z,13.33
2022-12-04T10:49:13.352Z,13.67
2022-12-04T10:51:41.060Z,13.87
2022-12-04T10:54:30.828Z,12.63
2022-12-04T10:56:58.703Z,13.47
2022-12-04T10:59:25.414Z,14.30
2022-12-04T11:02:01.647Z,15.80
2022-12-04T11:04:34.039Z,12.07
2022-12-04T11:07:05.430Z,12.43
2022-12-04T11:09:32.160Z,13.63
2022-12-04T11:12:27.930Z,12.63
2022-12-04T11:15:20.722Z,12.33
2022-12-04T11:17:47.139Z,12.93
2022-12-04T11:20:21.572Z,13.93
2022-12-04T11:22:50.039Z,12.03
2022-12-04T11:25:18.779Z,13.00
2022-12-04T11:27:50.498Z,12.27
2022-12-04T11:30:20.860Z,13.60
2022-12-04T11:32:47.692Z,14.20
2022-12-04T11:35:17.432Z,12.53
2022-12-04T11:37:51.811Z,13.00
2022-12-04T11:40:19.536Z,13.53
2022-12-04T11:42:56.767Z,13.83
2022-12-04T11:45:26.203Z,12.80
2022-12-04T11:47:54.109Z,13.50
2022-12-04T11:50:26.736Z,12.97
2022-12-04T11:53:02.608Z,13.60
2022-12-04T11:55:52.413Z,12.53
2022-12-04T11:58:37.809Z,13.00
2022-12-04T12:01:23.008Z,12.07
2022-12-04T12:04:05.174Z,11.07
2022-12-04T12:06:39.291Z,13.00
2022-12-04T12:09:22.121Z,13.60
2022-12-04T12:11:52.031Z,12.20
2022-12-04T12:14:24.438Z,11.43
2022-12-04T12:16:56.200Z,13.40
2022-12-04T12:19:22.669Z,12.57
2022-12-04T12:22:06.750Z,13.50
2022-12-04T12:24:33.498Z,13.03
2022-12-04T12:27:06.432Z,13.43
2022-12-04T12:29:39.150Z,13.47
2022-12-04T12:32:21.024Z,12.17
2022-12-04T12:34:47.644Z,13.67
2022-12-04T12:37:14.099Z,14.67
2022-12-04T12:39:42.732Z,14.10
2022-12-04T12:42:18.872Z,14.63
2022-12-04T12:44:49.418Z,12.63
2022-12-04T12:47:21.177Z,12.63
2022-12-04T12:49:55.626Z,12.80
2022-12-04T12:52:38.004Z,12.30
2022-12-04T12:55:25.126Z,13.10
2022-12-04T12:58:08.680Z,13.23
2022-12-04T13:00:39.255Z,13.40
2022-12-04T13:03:12.289Z,12.73
2022-12-04T13:05:44.393Z,14.17
2022-12-04T13:08:18.782Z,14.30
2022-12-04T13:10:51.891Z,13.23
2022-12-04T13:13:25.979Z,13.40
2022-12-04T13:16:02.550Z,12.87
2022-12-04T13:18:41.451Z,13.90
2022-12-04T13:21:10.538Z,14.43
2022-12-04T13:23:42.736Z,14.73
2022-12-04T13:26:15.921Z,14.60
2022-12-04T13:29:00.512Z,13.03
2022-12-04T13:31:27.023Z,14.17
2022-12-04T13:34:08.814Z,15.40
2022-12-04T13:36:44.453Z,13.63
2022-12-04T13:39:23.098Z,12.70
2022-12-04T13:41:57.546Z,14.40
2022-12-04T13:44:25.360Z,12.77
2022-12-04T13:46:59.044Z,13.60
2022-12-04T13:49:26.619Z,13.93
2022-12-04T13:51:55.382Z,13.13
2022-12-04T13:54:27.743Z,13.40
2022-12-04T13:57:17.745Z,13.47
2022-12-04T13:59:44.633Z,13.33
2022-12-04T14:02:32.142Z,13.63
2022-12-04T14:05:06.575Z,14.00
2022-12-04T14:07:33.327Z,12.67
2022-12-04T14:10:10.438Z,12.57
2022-12-04T14:12:39.159Z,13.73
2022-12-04T14:15:07.909Z,14.20
2022-12-04T14:17:36.368Z,15.10
2022-12-04T14:20:08.099Z,13.53
2022-12-04T14:22:34.842Z,14.80
2022-12-04T14:25:20.686Z,14.30
2022-12-04T14:27:51.980Z,14.23
2022-12-04T14:30:19.161Z,13.57
2022-12-04T14:32:47.611Z,12.10
2022-12-04T14:35:16.153Z,12.57
2022-12-04T14:37:46.335Z,13.47
2022-12-04T14:40:17.911Z,13.37
2022-12-04T14:42:47.541Z,12.47
2022-12-04T14:45:22.999Z,11.70
2022-12-04T14:47:52.621Z,13.40
2022-12-04T14:50:19.110Z,14.10
2022-12-04T14:52:50.107Z,14.23
2022-12-04T14:55:30.961Z,14.77
2022-12-04T14:58:00.207Z,15.40
2022-12-04T15:00:27.003Z,13.93
2022-12-04T15:02:58.229Z,16.30
2022-12-04T15:05:26.379Z,15.93
2022-12-04T15:07:54.266Z,17.50
2022-12-04T15:10:44.045Z,16.60
2022-12-04T15:13:11.079Z,16.47
2022-12-04T15:15:37.881Z,18.03
2022-12-04T15:18:11.695Z,18.23
2022-12-04T15:20:51.238Z,19.63
2022-12-04T15:23:29.260Z,20.20
2022-12-04T15:25:57.052Z,20.53
2022-12-04T15:28:45.289Z,19.97
2022-12-04T15:31:14.254Z,18.47
2022-12-04T15:33:41.234Z,22.83
2022-12-04T15:36:09.829Z,22.00
2022-12-04T15:38:36.721Z,25.37
2022-12-04T15:41:03.226Z,22.40
2022-12-04T15:43:40.188Z,23.60
2022-12-04T15:46:13.673Z,23.53
2022-12-04T15:48:45.054Z,25.47
2022-12-04T15:51:14.734Z,24.37
2022-12-04T15:53:43.948Z,25.27
2022-12-04T15:56:16.719Z,24.67
2022-12-04T15:58:50.687Z,25.63
2022-12-04T16:01:17.364Z,23.17
2022-12-04T16:03:43.826Z,24.63
2022-12-04T16:06:23.853Z,27.43
2022-12-04T16:08:55.014Z,25.70
2022-12-04T16:11:21.536Z,22.93
2022-12-04T16:14:02.500Z,24.80
2022-12-04T16:16:29.145Z,22.03
2022-12-04T16:18:55.748Z,23.93
2022-12-04T16:21:24.693Z,22.80
2022-12-04T16:23:51.217Z,20.27
2022-12-04T16:26:18.605Z,24.07
2022-12-04T16:28:45.327Z,21.50
2022-12-04T16:31:23.004Z,20.83
2022-12-04T16:33:49.681Z,20.50
2022-12-04T16:36:16.304Z,20.07
2022-12-04T16:38:42.750Z,22.20
2022-12-04T16:41:16.116Z,19.63
2022-12-04T16:43:42.598Z,20.17
2022-12-04T16:46:11.859Z,18.50
2022-12-04T16:48:38.760Z,18.33
2022-12-04T16:51:05.268Z,18.63
2022-12-04T16:53:31.688Z,19.33
2022-12-04T16:55:58.207Z,21.00
2022-12-04T16:58:24.689Z,18.00
2022-12-04T17:00:53.797Z,19.30
2022-12-04T17:03:24.961Z,18.37
2022-12-04T17:05:51.630Z,18.83
2022-12-04T17:08:18.161Z,19.00
2022-12-04T17:10:44.812Z,19.93
2022-12-04T17:13:11.387Z,19.33
2022-12-04T17:15:38.038Z,20.47
2022-12-04T17:18:09.112Z,19.13
2022-12-04T17:20:40.496Z,22.03
2022-12-04T17:23:07.061Z,21.97
2022-12-04T17:25:33.600Z,20.10
2022-12-04T17:28:00.298Z,21.13
2022-12-04T17:30:29.208Z,20.53
2022-12-04T17:33:00.026Z,20.60
2022-12-04T17:35:26.537Z,20.13
2022-12-04T17:37:53.121Z,21.07
2022-12-04T17:40:19.759Z,22.33
2022-12-04T17:42:46.233Z,21.70
2022-12-04T17:45:14.334Z,21.73
2022-12-04T17:47:40.817Z,21.83
2022-12-04T17:50:07.705Z,22.77
2022-12-04T17:52:34.194Z,23.10
2022-12-04T17:55:00.632Z,22.03
2022-12-04T17:57:27.598Z,22.77
2022-12-04T17:59:54.085Z,21.00
2022-12-04T18:02:20.712Z,22.47
2022-12-04T18:04:47.326Z,20.83
2022-12-04T18:07:13.791Z,22.60
2022-12-04T18:09:40.413Z,24.47
2022-12-04T18:12:06.891Z,22.00
2022-12-04T18:14:35.361Z,23.13
2022-12-04T18:17:02.698Z,21.97
2022-12-04T18:19:29.732Z,21.77
2022-12-04T18:21:57.000Z,19.80
2022-12-04T18:24:24.312Z,19.93
2022-12-04T18:26:50.861Z,21.33
2022-12-04T18:29:19.791Z,21.30
2022-12-04T18:31:46.724Z,21.97
2022-12-04T18:34:13.414Z,21.60
2022-12-04T18:36:40.493Z,18.67
2022-12-04T18:39:14.804Z,21.00
2022-12-04T18:41:41.849Z,21.47
2022-12-04T18:44:08.378Z,21.50
2022-12-04T18:46:35.562Z,21.37
2022-12-04T18:49:02.450Z,22.60
2022-12-04T18:51:30.349Z,21.47
2022-12-04T18:53:58.350Z,19.40
2022-12-04T18:56:24.992Z,20.10
2022-12-04T18:58:56.378Z,20.27
2022-12-04T19:01:22.943Z,19.90
2022-12-04T19:03:49.610Z,21.00
2022-12-04T19:06:16.158Z,23.20
2022-12-04T19:08:43.603Z,21.53
2022-12-04T19:11:14.542Z,22.17
2022-12-04T19:13:41.778Z,22.50
2022-12-04T19:16:15.148Z,23.03
2022-12-04T19:18:42.379Z,22.33
2022-12-04T19:21:09.296Z,21.77
2022-12-04T19:23:35.993Z,22.20
2022-12-04T19:26:03.234Z,23.83
2022-12-04T19:28:29.966Z,27.73
2022-12-04T19:30:56.634Z,20.23
2022-12-04T19:33:23.549Z,23.00
2022-12-04T19:36:04.055Z,22.63
2022-12-04T19:38:31.598Z,21.53
2022-12-04T19:41:03.982Z,25.47
2022-12-04T19:43:30.468Z,22.87
2022-12-04T19:45:57.064Z,21.10
2022-12-04T19:48:23.624Z,22.13
2022-12-04T19:50:50.099Z,23.87
2022-12-04T19:53:16.560Z,24.47
2022-12-04T19:55:43.150Z,23.23
2022-12-04T19:58:09.688Z,23.90
2022-12-04T20:00:36.300Z,25.10
2022-12-04T20:03:02.792Z,23.27
2022-12-04T20:05:29.425Z,24.97
2022-12-04T20:07:55.964Z,25.30
2022-12-04T20:10:22.674Z,22.93
2022-12-04T20:12:49.138Z,23.17
2022-12-04T20:15:15.744Z,27.40
2022-12-04T20:17:42.252Z,25.40
2022-12-04T20:20:09.133Z,25.27
2022-12-04T20:22:36.396Z,25.70
2022-12-04T20:25:03.054Z,23.47
2022-12-04T20:27:29.582Z,26.33
2022-12-04T20:29:56.288Z,27.67
2022-12-04T20:32:23.003Z,24.93
2022-12-04T20:34:49.485Z,28.07
2022-12-04T20:37:16.036Z,27.00
2022-12-04T20:39:42.622Z,27.67
2022-12-04T20:42:09.286Z,27.33
2022-12-04T20:44:35.765Z,28.70
2022-12-04T20:47:02.304Z,26.97
2022-12-04T20:49:28.757Z,26.97
2022-12-04T20:51:55.263Z,27.40
2022-12-04T20:54:22.132Z,30.47
2022-12-04T20:56:49.235Z,33.60
2022-12-04T20:59:16.746Z,30.53
2022-12-04T21:01:43.790Z,30.13
2022-12-04T21:04:10.786Z,29.03
2022-12-04T21:06:38.332Z,31.50
2022-12-04T21:09:10.250Z,30.63
2022-12-04T21:11:38.639Z,32.30
2022-12-04T21:14:25.466Z,31.80
2022-12-04T21:16:51.962Z,28.17
2022-12-04T21:19:19.590Z,29.20
2022-12-04T21:21:46.397Z,31.53
2022-12-04T21:24:13.961Z,29.90
2022-12-04T21:26:40.715Z,30.53
2022-12-04T21:29:07.704Z,33.53
2022-12-04T21:31:35.150Z,33.03
2022-12-04T21:34:02.576Z,36.37
2022-12-04T21:36:29.359Z,36.17
2022-12-04T21:38:56.204Z,33.70
2022-12-04T21:41:41.176Z,34.40
2022-12-04T21:44:08.787Z,36.30
2022-12-04T21:46:35.474Z,35.60
2022-12-04T21:49:02.097Z,37.63
2022-12-04T21:51:55.869Z,40.23
2022-12-04T21:54:15.277Z,38.30
2022-12-04T21:56:41.909Z,43.03
2022-12-04T21:59:08.398Z,38.37
2022-12-04T22:01:34.960Z,40.47
2022-12-04T22:04:01.513Z,50.43
2022-12-04T22:06:28.031Z,40.77
2022-12-04T22:08:55.061Z,39.07
2022-12-04T22:11:21.827Z,40.73
2022-12-04T22:13:48.411Z,37.83
2022-12-04T22:16:16.115Z,49.03
2022-12-04T22:18:42.659Z,43.37
2022-12-04T22:21:13.930Z,43.43
2022-12-04T22:23:40.949Z,39.57
2022-12-04T22:26:08.480Z,40.30
2022-12-04T22:28:35.411Z,33.80
2022-12-04T22:31:03.219Z,40.27
2022-12-04T22:33:29.939Z,34.87
2022-12-04T22:36:00.767Z,36.13
2022-12-04T22:38:27.216Z,37.30
2022-12-04T22:40:53.723Z,40.67
2022-12-04T22:43:20.213Z,47.37
2022-12-04T22:45:46.805Z,36.07
2022-12-04T22:48:13.362Z,37.90
2022-12-04T22:50:39.849Z,36.13
2022-12-04T22:53:06.314Z,32.20
2022-12-04T22:55:34.623Z,37.00
2022-12-04T22:58:01.171Z,32.33
2022-12-04T23:00:28.280Z,33.83
2022-12-04T23:02:54.812Z,33.53
2022-12-04T23:05:21.309Z,33.77
2022-12-04T23:07:47.894Z,35.87
2022-12-04T23:10:14.399Z,33.70
2022-12-04T23:12:40.897Z,33.37
2022-12-04T23:15:07.748Z,33.50
2022-12-04T23:17:34.208Z,33.60
2022-12-04T23:20:00.659Z,36.03
2022-12-04T23:22:27.150Z,32.73
2022-12-04T23:24:53.602Z,32.67
2022-12-04T23:27:20.069Z,34.83
2022-12-04T23:29:54.227Z,33.90
2022-12-04T23:32:20.978Z,32.73
2022-12-04T23:34:47.423Z,33.40
2022-12-04T23:37:13.856Z,36.57
2022-12-04T23:39:40.301Z,38.50
2022-12-04T23:42:06.799Z,34.67
2022-12-04T23:44:33.313Z,35.23
2022-12-04T23:46:59.962Z,31.20
2022-12-04T23:49:26.464Z,32.43
2022-12-04T23:51:52.975Z,37.70
2022-12-04T23:54:19.412Z,31.93
2022-12-04T23:56:45.936Z,29.73
2022-12-04T23:59:12.476Z,35.53
